createdAt,value
2018-08-22T00:00:42.701Z,14.30
2018-08-22T00:03:13.007Z,14.30
2018-08-22T00:05:42.654Z,14.30
2018-08-22T00:08:12.219Z,14.40
2018-08-22T00:10:41.856Z,14.40
2018-08-22T00:13:11.546Z,14.40
2018-08-22T00:15:42.386Z,14.40
2018-08-22T00:18:12.962Z,14.40
2018-08-22T00:20:42.537Z,14.30
2018-08-22T00:23:12.138Z,14.30
2018-08-22T00:25:41.749Z,14.30
2018-08-22T00:28:11.368Z,14.20
2018-08-22T00:30:42.082Z,14.20
2018-08-22T00:33:12.412Z,14.20
2018-08-22T00:35:42.002Z,14.20
2018-08-22T00:38:11.690Z,14.10
2018-08-22T00:40:41.684Z,14.00
2018-08-22T00:43:11.316Z,13.90
2018-08-22T00:45:42.193Z,13.90
2018-08-22T00:48:12.586Z,13.80
2018-08-22T00:50:42.163Z,13.70
2018-08-22T00:53:11.728Z,13.70
2018-08-22T00:55:41.459Z,13.70
2018-08-22T00:58:11.064Z,13.70
2018-08-22T01:00:42.514Z,13.60
2018-08-22T01:03:13.352Z,13.60
2018-08-22T01:05:42.962Z,13.60
2018-08-22T01:08:12.584Z,13.60
2018-08-22T01:10:42.184Z,13.60
2018-08-22T01:13:11.757Z,13.60
2018-08-22T01:15:42.461Z,13.50
2018-08-22T01:18:12.794Z,13.50
2018-08-22T01:20:42.385Z,13.60
2018-08-22T01:23:11.974Z,13.60
2018-08-22T01:25:41.548Z,13.60
2018-08-22T01:28:11.171Z,13.60
2018-08-22T01:30:42.326Z,13.70
2018-08-22T01:33:12.828Z,13.70
2018-08-22T01:35:42.471Z,13.60
2018-08-22T01:38:12.090Z,13.60
2018-08-22T01:40:41.701Z,13.60
2018-08-22T01:43:11.347Z,13.40
2018-08-22T01:45:42.267Z,13.30
2018-08-22T01:48:12.677Z,13.30
2018-08-22T01:50:42.264Z,13.20
2018-08-22T01:53:11.922Z,13.10
2018-08-22T01:55:41.561Z,13.00
2018-08-22T01:58:11.482Z,13.00
2018-08-22T02:00:42.937Z,12.90
2018-08-22T02:03:13.301Z,12.90
2018-08-22T02:05:42.876Z,12.90
2018-08-22T02:08:12.487Z,12.90
2018-08-22T02:10:42.046Z,13.00
2018-08-22T02:13:11.947Z,12.90
2018-08-22T02:15:42.656Z,12.80
2018-08-22T02:18:13.932Z,12.70
2018-08-22T02:20:43.579Z,12.70
2018-08-22T02:23:13.170Z,12.70
2018-08-22T02:25:42.726Z,12.60
2018-08-22T02:28:13.067Z,12.60
2018-08-22T02:30:43.555Z,12.60
2018-08-22T02:33:14.238Z,12.40
2018-08-22T02:35:43.856Z,12.30
2018-08-22T02:38:18.157Z,12.30
2018-08-22T02:40:47.786Z,12.30
2018-08-22T02:43:18.420Z,12.30
2018-08-22T02:45:48.103Z,12.20
2018-08-22T02:48:18.465Z,12.10
2018-08-22T02:50:48.086Z,12.10
2018-08-22T02:53:17.752Z,12.10
2018-08-22T02:55:47.401Z,12.20
2018-08-22T02:58:18.141Z,12.20
2018-08-22T03:00:47.736Z,12.20
2018-08-22T03:03:18.362Z,12.20
2018-08-22T03:05:47.990Z,12.20
2018-08-22T03:08:18.207Z,12.20
2018-08-22T03:10:47.804Z,12.10
2018-08-22T03:13:17.418Z,12.10
2018-08-22T03:15:47.076Z,12.10
2018-08-22T03:18:17.290Z,12.10
2018-08-22T03:20:46.960Z,12.00
2018-08-22T03:23:16.608Z,12.00
2018-08-22T03:25:46.274Z,11.90
2018-08-22T03:28:15.916Z,11.90
2018-08-22T03:30:48.323Z,11.90
2018-08-22T03:33:19.049Z,11.80
2018-08-22T03:35:49.694Z,11.70
2018-08-22T03:38:19.579Z,11.70
2018-08-22T03:40:49.256Z,11.70
2018-08-22T03:43:18.933Z,11.70
2018-08-22T03:45:48.570Z,11.60
2018-08-22T03:48:18.957Z,11.60
2018-08-22T03:50:48.582Z,11.60
2018-08-22T03:53:18.321Z,11.60
2018-08-22T03:55:47.974Z,11.60
2018-08-22T03:58:17.573Z,11.60
2018-08-22T04:00:47.170Z,11.50
2018-08-22T04:03:19.136Z,11.50
2018-08-22T04:05:48.739Z,11.50
2018-08-22T04:08:18.367Z,11.50
2018-08-22T04:10:48.037Z,11.50
2018-08-22T04:13:17.727Z,11.50
2018-08-22T04:15:47.382Z,11.40
2018-08-22T04:18:17.601Z,11.50
2018-08-22T04:20:47.214Z,11.50
2018-08-22T04:23:16.795Z,11.50
2018-08-22T04:25:46.447Z,11.50
2018-08-22T04:28:16.099Z,11.50
2018-08-22T04:30:45.707Z,11.60
2018-08-22T04:33:16.518Z,11.60
2018-08-22T04:35:46.122Z,11.60
2018-08-22T04:38:15.735Z,11.70
2018-08-22T04:40:45.896Z,11.70
2018-08-22T04:43:15.585Z,11.80
2018-08-22T04:45:45.199Z,11.90
2018-08-22T04:48:16.938Z,12.00
2018-08-22T04:50:46.538Z,12.00
2018-08-22T04:53:16.818Z,12.20
2018-08-22T04:55:46.423Z,12.30
2018-08-22T04:58:16.149Z,12.40
2018-08-22T05:00:46.446Z,12.50
2018-08-22T05:03:17.308Z,12.60
2018-08-22T05:05:46.984Z,12.80
2018-08-22T05:08:16.594Z,13.00
2018-08-22T05:10:46.264Z,13.10
2018-08-22T05:13:16.125Z,13.30
2018-08-22T05:15:45.739Z,13.60
2018-08-22T05:18:17.267Z,13.70
2018-08-22T05:20:46.852Z,13.90
2018-08-22T05:23:16.717Z,14.10
2018-08-22T05:25:46.349Z,14.30
2018-08-22T05:28:16.784Z,14.50
2018-08-22T05:30:46.361Z,14.60
2018-08-22T05:33:17.176Z,14.80
2018-08-22T05:35:46.807Z,14.90
2018-08-22T05:38:17.292Z,15.10
2018-08-22T05:40:47.010Z,15.30
2018-08-22T05:43:16.974Z,15.40
2018-08-22T05:45:50.090Z,15.70
2018-08-22T05:48:20.085Z,15.90
2018-08-22T05:50:50.138Z,16.10
2018-08-22T05:53:19.786Z,16.20
2018-08-22T05:55:49.358Z,16.40
2018-08-22T05:58:18.992Z,16.70
2018-08-22T06:00:48.610Z,17.10
2018-08-22T06:03:19.179Z,17.30
2018-08-22T06:05:48.742Z,17.50
2018-08-22T06:08:18.699Z,17.60
2018-08-22T06:10:48.287Z,17.80
2018-08-22T06:13:18.531Z,17.80
2018-08-22T06:15:48.236Z,18.10
2018-08-22T06:18:18.787Z,18.30
2018-08-22T06:20:48.413Z,18.60
2018-08-22T06:23:18.895Z,18.70
2018-08-22T06:25:48.523Z,18.90
2018-08-22T06:28:18.784Z,19.20
2018-08-22T06:30:48.388Z,19.30
2018-08-22T06:33:18.458Z,19.30
2018-08-22T06:35:48.101Z,19.40
2018-08-22T06:38:18.363Z,19.60
2018-08-22T06:40:47.939Z,19.80
2018-08-22T06:43:18.048Z,20.10
2018-08-22T06:45:47.646Z,20.30
2018-08-22T06:48:17.797Z,20.40
2018-08-22T06:50:47.393Z,20.60
2018-08-22T06:53:17.541Z,20.70
2018-08-22T06:55:47.173Z,20.80
2018-08-22T06:58:16.987Z,20.90
2018-08-22T07:00:46.615Z,20.80
2018-08-22T07:03:16.715Z,21.00
2018-08-22T07:05:46.315Z,21.20
2018-08-22T07:08:16.158Z,21.30
2018-08-22T07:10:45.721Z,21.30
2018-08-22T07:13:15.318Z,21.50
2018-08-22T07:15:44.930Z,21.50
2018-08-22T07:18:15.938Z,21.60
2018-08-22T07:20:45.541Z,21.70
2018-08-22T07:23:15.168Z,21.80
2018-08-22T07:25:44.783Z,22.00
2018-08-22T07:28:14.452Z,22.00
2018-08-22T07:30:44.595Z,21.80
2018-08-22T07:33:15.190Z,21.80
2018-08-22T07:35:44.803Z,22.00
2018-08-22T07:38:14.437Z,22.20
2018-08-22T07:40:44.028Z,22.40
2018-08-22T07:43:13.643Z,22.40
2018-08-22T07:45:44.143Z,22.40
2018-08-22T07:48:14.816Z,22.50
2018-08-22T07:50:44.505Z,22.60
2018-08-22T07:53:14.291Z,22.80
2018-08-22T07:55:43.923Z,22.80
2018-08-22T07:58:13.517Z,23.00
2018-08-22T08:00:43.976Z,23.00
2018-08-22T08:03:14.455Z,23.00
2018-08-22T08:05:44.098Z,23.10
2018-08-22T08:08:13.698Z,23.40
2018-08-22T08:10:43.375Z,23.50
2018-08-22T08:13:18.140Z,23.50
2018-08-22T08:15:47.772Z,23.80
2018-08-22T08:18:17.771Z,23.90
2018-08-22T08:20:47.451Z,24.10
2018-08-22T08:23:17.064Z,24.10
2018-08-22T08:25:46.715Z,24.30
2018-08-22T08:28:16.319Z,24.40
2018-08-22T08:30:45.912Z,24.30
2018-08-22T08:33:16.516Z,24.20
2018-08-22T08:35:46.155Z,24.50
2018-08-22T08:38:15.732Z,24.60
2018-08-22T08:40:45.414Z,24.50
2018-08-22T08:43:15.073Z,24.40
2018-08-22T08:45:44.824Z,24.60
2018-08-22T08:48:15.302Z,24.70
2018-08-22T08:50:44.952Z,24.90
2018-08-22T08:53:14.612Z,24.80
2018-08-22T08:55:44.204Z,24.50
2018-08-22T08:58:13.857Z,24.20
2018-08-22T09:00:44.239Z,23.80
2018-08-22T09:03:15.102Z,24.10
2018-08-22T09:05:44.823Z,24.60
2018-08-22T09:08:14.427Z,24.90
2018-08-22T09:10:44.008Z,25.20
2018-08-22T09:13:13.618Z,25.30
2018-08-22T09:15:43.607Z,25.40
2018-08-22T09:18:13.593Z,25.50
2018-08-22T09:20:43.167Z,25.40
2018-08-22T09:23:12.785Z,25.60
2018-08-22T09:25:42.445Z,25.60
2018-08-22T09:28:12.171Z,25.80
2018-08-22T09:30:42.244Z,25.80
2018-08-22T09:33:12.590Z,25.80
2018-08-22T09:35:42.191Z,25.50
2018-08-22T09:38:11.911Z,25.40
2018-08-22T09:40:41.514Z,24.90
2018-08-22T09:43:17.628Z,24.70
2018-08-22T09:45:47.186Z,25.00
2018-08-22T09:48:17.481Z,25.20
2018-08-22T09:50:47.103Z,25.60
2018-08-22T09:53:16.735Z,25.60
2018-08-22T09:55:46.343Z,25.90
2018-08-22T09:58:15.960Z,26.00
2018-08-22T10:00:50.717Z,25.50
2018-08-22T10:03:20.407Z,25.00
2018-08-22T10:05:50.014Z,25.40
2018-08-22T10:08:19.686Z,25.70
2018-08-22T10:10:49.331Z,25.60
2018-08-22T10:13:18.959Z,25.50
2018-08-22T10:15:48.638Z,25.60
2018-08-22T10:18:19.044Z,25.60
2018-08-22T10:20:48.641Z,25.50
2018-08-22T10:23:18.340Z,25.80
2018-08-22T10:25:47.946Z,26.10
2018-08-22T10:28:18.374Z,26.10
2018-08-22T10:30:47.969Z,26.10
2018-08-22T10:33:18.211Z,26.00
2018-08-22T10:35:47.821Z,26.00
2018-08-22T10:38:17.419Z,26.10
2018-08-22T10:40:47.000Z,26.30
2018-08-22T10:43:16.619Z,26.20
2018-08-22T10:45:46.208Z,26.00
2018-08-22T10:48:16.946Z,26.20
2018-08-22T10:50:46.613Z,26.30
2018-08-22T10:53:16.224Z,26.60
2018-08-22T10:55:46.332Z,26.70
2018-08-22T10:58:15.935Z,26.80
2018-08-22T11:00:45.549Z,26.60
2018-08-22T11:03:16.307Z,26.40
2018-08-22T11:05:45.996Z,26.60
2018-08-22T11:08:15.602Z,26.80
2018-08-22T11:10:45.231Z,26.90
2018-08-22T11:13:14.837Z,27.00
2018-08-22T11:15:45.023Z,27.10
2018-08-22T11:18:15.960Z,27.20
2018-08-22T11:20:49.861Z,27.30
2018-08-22T11:23:36.251Z,27.50
2018-08-22T11:26:22.731Z,27.50
2018-08-22T11:29:09.072Z,27.50
2018-08-22T11:31:55.459Z,27.40
2018-08-22T11:34:41.929Z,27.40
2018-08-22T11:37:12.777Z,27.50
2018-08-22T11:39:44.759Z,27.50
2018-08-22T11:42:15.219Z,27.60
2018-08-22T11:44:44.839Z,27.70
2018-08-22T11:47:14.468Z,27.90
2018-08-22T11:49:44.112Z,28.00
2018-08-22T11:52:13.738Z,28.10
2018-08-22T11:54:44.314Z,28.10
2018-08-22T11:57:14.504Z,28.10
2018-08-22T11:59:44.095Z,28.10
2018-08-22T12:02:13.768Z,28.20
2018-08-22T12:04:43.431Z,28.30
2018-08-22T12:07:13.359Z,28.20
2018-08-22T12:09:43.632Z,28.30
2018-08-22T12:12:13.521Z,28.20
2018-08-22T12:14:43.169Z,28.20
2018-08-22T12:17:12.799Z,28.40
2018-08-22T12:19:42.435Z,28.40
2018-08-22T12:22:12.186Z,28.40
2018-08-22T12:24:43.266Z,28.50
2018-08-22T12:27:13.052Z,28.60
2018-08-22T12:29:42.804Z,28.50
2018-08-22T12:32:12.526Z,28.50
2018-08-22T12:34:42.230Z,28.50
2018-08-22T12:37:11.930Z,28.80
2018-08-22T12:39:42.876Z,28.60
2018-08-22T12:42:12.928Z,28.80
2018-08-22T12:44:42.713Z,29.00
2018-08-22T12:47:12.415Z,29.10
2018-08-22T12:49:42.085Z,29.10
2018-08-22T12:52:11.765Z,29.40
2018-08-22T12:54:42.913Z,29.60
2018-08-22T12:57:13.215Z,29.80
2018-08-22T12:59:42.890Z,30.10
2018-08-22T13:02:12.474Z,30.70
2018-08-22T13:04:42.434Z,31.30
2018-08-22T13:07:12.004Z,31.80
2018-08-22T13:09:43.225Z,32.20
2018-08-22T13:12:13.096Z,32.50
2018-08-22T13:14:42.722Z,32.70
2018-08-22T13:17:12.442Z,32.40
2018-08-22T13:19:42.202Z,32.30
2018-08-22T13:22:11.870Z,32.40
2018-08-22T13:24:42.828Z,32.60
2018-08-22T13:27:12.605Z,32.70
2018-08-22T13:29:42.520Z,32.50
2018-08-22T13:32:12.299Z,32.90
2018-08-22T13:34:42.195Z,33.00
2018-08-22T13:37:11.822Z,33.00
2018-08-22T13:39:43.858Z,33.30
2018-08-22T13:42:14.722Z,33.30
2018-08-22T13:44:44.432Z,32.80
2018-08-22T13:47:14.118Z,32.60
2018-08-22T13:49:43.926Z,32.00
2018-08-22T13:52:13.885Z,31.80
2018-08-22T13:54:45.177Z,31.80
2018-08-22T13:57:15.895Z,31.80
2018-08-22T13:59:45.715Z,31.60
2018-08-22T14:02:15.373Z,31.80
2018-08-22T14:04:45.076Z,32.30
2018-08-22T14:07:14.732Z,32.40
2018-08-22T14:09:45.106Z,32.40
2018-08-22T14:12:15.687Z,32.20
2018-08-22T14:14:45.515Z,31.80
2018-08-22T14:17:15.179Z,31.40
2018-08-22T14:19:46.352Z,31.30
2018-08-22T14:22:16.100Z,31.00
2018-08-22T14:24:46.368Z,31.10
2018-08-22T14:27:17.003Z,30.90
2018-08-22T14:29:46.651Z,31.00
2018-08-22T14:32:16.267Z,31.00
2018-08-22T14:34:45.908Z,31.00
2018-08-22T14:37:15.680Z,30.90
2018-08-22T14:39:46.042Z,30.70
2018-08-22T14:42:16.540Z,31.00
2018-08-22T14:44:46.439Z,31.20
2018-08-22T14:47:16.110Z,31.70
2018-08-22T14:49:46.133Z,31.90
2018-08-22T14:52:15.784Z,32.00
2018-08-22T14:54:46.140Z,32.20
2018-08-22T14:57:16.852Z,32.50
2018-08-22T14:59:46.788Z,32.80
2018-08-22T15:02:16.507Z,32.70
2018-08-22T15:04:46.480Z,32.90
2018-08-22T15:07:16.120Z,32.80
2018-08-22T15:09:46.246Z,32.50
2018-08-22T15:12:16.754Z,32.30
2018-08-22T15:14:47.315Z,32.00
2018-08-22T15:17:17.047Z,31.60
2018-08-22T15:19:47.471Z,31.50
2018-08-22T15:22:17.163Z,31.50
2018-08-22T15:24:47.482Z,31.10
2018-08-22T15:27:18.213Z,30.90
2018-08-22T15:29:48.161Z,30.90
2018-08-22T15:32:17.924Z,30.80
2018-08-22T15:34:53.471Z,30.50
2018-08-22T15:37:23.775Z,30.30
2018-08-22T15:39:53.402Z,30.10
2018-08-22T15:42:23.107Z,30.00
2018-08-22T15:44:52.712Z,29.80
2018-08-22T15:47:22.426Z,29.60
2018-08-22T15:49:52.045Z,29.50
2018-08-22T15:52:21.822Z,29.20
2018-08-22T15:55:09.829Z,29.20
2018-08-22T15:58:06.151Z,29.20
2018-08-22T16:00:49.956Z,29.00
2018-08-22T16:03:20.339Z,28.80
2018-08-22T16:05:51.098Z,28.70
2018-08-22T16:08:23.434Z,28.60
2018-08-22T16:10:54.104Z,28.50
2018-08-22T16:13:29.458Z,28.40
2018-08-22T16:16:01.764Z,28.30
2018-08-22T16:18:33.811Z,28.30
2018-08-22T16:21:04.308Z,28.10
2018-08-22T16:23:35.079Z,28.00
2018-08-22T16:26:05.747Z,28.00
2018-08-22T16:28:54.901Z,28.00
2018-08-22T16:31:29.628Z,27.90
2018-08-22T16:33:59.330Z,27.80
2018-08-22T16:36:31.014Z,27.70
2018-08-22T16:39:01.459Z,27.60
2018-08-22T16:41:31.061Z,27.50
2018-08-22T16:44:00.724Z,27.40
2018-08-22T16:46:30.500Z,27.30
2018-08-22T16:49:00.178Z,27.30
2018-08-22T16:51:29.782Z,27.30
2018-08-22T16:54:04.574Z,27.30
2018-08-22T16:56:35.054Z,27.30
2018-08-22T16:59:09.733Z,27.20
2018-08-22T17:01:41.955Z,27.10
2018-08-22T17:04:11.720Z,26.90
2018-08-22T17:06:43.528Z,26.90
2018-08-22T17:09:13.385Z,26.90
2018-08-22T17:11:43.148Z,26.80
2018-08-22T17:14:12.967Z,26.70
2018-08-22T17:16:42.632Z,26.60
2018-08-22T17:19:12.283Z,26.40
2018-08-22T17:21:42.993Z,26.30
2018-08-22T17:24:12.654Z,26.20
2018-08-22T17:26:46.619Z,26.10
2018-08-22T17:29:17.691Z,26.00
2018-08-22T17:31:54.070Z,26.00
2018-08-22T17:34:23.855Z,25.90
2018-08-22T17:37:07.028Z,25.80
2018-08-22T17:39:36.812Z,25.70
2018-08-22T17:42:06.504Z,25.60
2018-08-22T17:44:36.266Z,25.40
2018-08-22T17:47:05.986Z,25.40
2018-08-22T17:49:35.620Z,25.30
2018-08-22T17:52:10.566Z,25.20
2018-08-22T17:54:41.505Z,25.20
2018-08-22T17:57:20.426Z,25.00
2018-08-22T17:59:50.175Z,25.00
2018-08-22T18:02:19.918Z,24.90
2018-08-22T18:05:05.230Z,24.70
2018-08-22T18:07:43.278Z,24.50
2018-08-22T18:10:13.167Z,24.40
2018-08-22T18:12:44.077Z,24.30
2018-08-22T18:15:13.999Z,24.20
2018-08-22T18:17:43.645Z,24.00
2018-08-22T18:20:16.397Z,23.90
2018-08-22T18:22:47.754Z,23.80
2018-08-22T18:25:17.561Z,23.70
2018-08-22T18:27:47.212Z,23.60
2018-08-22T18:30:17.710Z,23.60
2018-08-22T18:32:50.581Z,23.50
2018-08-22T18:35:23.174Z,23.60
2018-08-22T18:37:53.955Z,23.60
2018-08-22T18:40:25.999Z,23.60
2018-08-22T18:43:01.804Z,23.60
2018-08-22T18:45:31.571Z,23.50
2018-08-22T18:48:07.168Z,23.50
2018-08-22T18:50:37.808Z,23.30
2018-08-22T18:53:07.638Z,23.10
2018-08-22T18:55:37.358Z,22.90
2018-08-22T18:58:07.014Z,22.80
2018-08-22T19:01:40.446Z,22.60
2018-08-22T19:04:10.347Z,22.50
2018-08-22T19:06:40.785Z,22.30
2018-08-22T19:09:10.747Z,22.20
2018-08-22T19:11:40.937Z,22.10
2018-08-22T19:14:10.692Z,22.00
2018-08-22T19:16:40.473Z,21.90
2018-08-22T19:19:10.237Z,21.80
2018-08-22T19:21:40.615Z,21.70
2018-08-22T19:24:10.461Z,21.60
2018-08-22T19:26:40.551Z,21.50
2018-08-22T19:29:10.240Z,21.50
2018-08-22T19:31:45.221Z,21.40
2018-08-22T19:34:14.914Z,21.40
2018-08-22T19:36:44.776Z,21.30
2018-08-22T19:39:14.557Z,21.30
2018-08-22T19:41:44.637Z,21.10
2018-08-22T19:44:15.142Z,21.10
2018-08-22T19:46:45.699Z,21.10
2018-08-22T19:49:15.416Z,21.00
2018-08-22T19:51:45.130Z,21.00
2018-08-22T19:54:14.754Z,20.90
2018-08-22T19:56:44.389Z,20.80
2018-08-22T19:59:14.956Z,20.80
2018-08-22T20:01:44.756Z,20.70
2018-08-22T20:04:14.519Z,20.60
2018-08-22T20:06:47.739Z,20.60
2018-08-22T20:09:19.853Z,20.50
2018-08-22T20:11:49.781Z,20.40
2018-08-22T20:14:19.418Z,20.30
2018-08-22T20:16:49.139Z,20.30
2018-08-22T20:19:18.990Z,20.20
2018-08-22T20:21:48.730Z,20.10
2018-08-22T20:24:18.549Z,20.00
2018-08-22T20:26:53.406Z,19.90
2018-08-22T20:29:28.210Z,19.90
2018-08-22T20:31:58.120Z,19.80
2018-08-22T20:34:28.042Z,19.80
2018-08-22T20:36:58.065Z,19.80
2018-08-22T20:39:27.844Z,19.70
2018-08-22T20:42:02.377Z,19.60
2018-08-22T20:44:32.173Z,19.70
2018-08-22T20:48:04.363Z,19.70
2018-08-22T20:50:37.172Z,19.60
2018-08-22T20:53:11.603Z,19.60
2018-08-22T20:55:41.505Z,19.50
2018-08-22T20:58:17.988Z,19.50
2018-08-22T21:00:47.615Z,19.40
2018-08-22T21:03:19.581Z,19.20
2018-08-22T21:05:49.535Z,19.10
2018-08-22T21:08:19.189Z,19.10
2018-08-22T21:10:49.249Z,19.10
2018-08-22T21:13:22.874Z,19.00
2018-08-22T21:15:52.584Z,19.00
2018-08-22T21:18:22.197Z,18.90
2018-08-22T21:20:51.831Z,18.90
2018-08-22T21:23:21.394Z,18.90
2018-08-22T21:25:51.066Z,18.80
2018-08-22T21:28:31.764Z,18.70
2018-08-22T21:31:01.978Z,18.60
2018-08-22T21:33:31.911Z,18.60
2018-08-22T21:36:01.558Z,18.50
2018-08-22T21:38:31.258Z,18.50
2018-08-22T21:41:00.956Z,18.50
2018-08-22T21:43:30.617Z,18.50
2018-08-22T21:46:00.194Z,18.40
2018-08-22T21:48:29.878Z,18.40
2018-08-22T21:50:59.503Z,18.30
2018-08-22T21:53:31.534Z,18.30
2018-08-22T21:56:01.205Z,18.30
2018-08-22T21:58:30.797Z,18.30
2018-08-22T22:01:00.529Z,18.30
2018-08-22T22:03:32.105Z,18.20
2018-08-22T22:06:04.666Z,18.20
2018-08-22T22:08:34.997Z,18.20
2018-08-22T22:11:07.367Z,18.10
2018-08-22T22:13:37.069Z,18.10
2018-08-22T22:16:06.688Z,18.00
2018-08-22T22:18:36.380Z,18.00
2018-08-22T22:21:15.261Z,17.90
2018-08-22T22:23:49.259Z,17.90
2018-08-22T22:26:19.776Z,18.00
2018-08-22T22:28:49.472Z,17.90
2018-08-22T22:31:19.147Z,17.90
2018-08-22T22:33:55.046Z,17.90
2018-08-22T22:36:24.735Z,17.80
2018-08-22T22:38:54.295Z,17.70
2018-08-22T22:41:28.202Z,17.70
2018-08-22T22:43:57.842Z,17.70
2018-08-22T22:46:27.456Z,17.70
2018-08-22T22:48:57.223Z,17.70
2018-08-22T22:51:27.307Z,17.70
2018-08-22T22:53:56.901Z,17.70
2018-08-22T22:56:26.504Z,17.70
2018-08-22T22:58:56.168Z,17.60
2018-08-22T23:01:26.321Z,17.60
2018-08-22T23:03:55.870Z,17.60
2018-08-22T23:06:25.458Z,17.60
2018-08-22T23:08:55.093Z,17.60
2018-08-22T23:11:25.294Z,17.60
2018-08-22T23:13:55.030Z,17.60
2018-08-22T23:16:38.963Z,17.60
2018-08-22T23:19:08.654Z,17.60
2018-08-22T23:21:38.860Z,17.60
2018-08-22T23:24:19.251Z,17.60
2018-08-22T23:26:49.310Z,17.50
2018-08-22T23:29:19.484Z,17.50
2018-08-22T23:31:49.283Z,17.50
2018-08-22T23:34:19.015Z,17.50
2018-08-22T23:36:49.013Z,17.40
2018-08-22T23:39:19.070Z,17.30
2018-08-22T23:41:49.262Z,17.30
2018-08-22T23:44:18.896Z,17.30
2018-08-22T23:46:48.494Z,17.40
2018-08-22T23:49:18.547Z,17.30
2018-08-22T23:51:48.179Z,17.30
2018-08-22T23:54:18.239Z,17.20
2018-08-22T23:56:51.950Z,17.20
2018-08-22T23:59:21.660Z,17.20
